Time;durP1;ratioP1;P1;durP2;ratioP2;P2;SDS_P1;SDS_P2;PMS_P1;PMS_P2;Temp;Humidity;BMP_temperature;BMP_pressure;BME280_temperature;BME280_humidity;BME280_pressure;Samples;Min_cycle;Max_cycle;Signal;HPM_P1;HPM_P2
2020/12/04 00:01:36;;;;;;;21.10;12.13;;;;;;;;;;5092033;28;20013;-57
2020/12/04 00:04:02;;;;;;;22.20;11.70;;;;;;;;;;5091782;28;20020;-57
2020/12/04 00:06:27;;;;;;;21.43;12.60;;;;;;;;;;5091701;28;20020;-57
2020/12/04 00:08:52;;;;;;;21.83;11.20;;;;;;;;;;5088148;28;20020;-56
2020/12/04 00:11:18;;;;;;;22.33;11.60;;;;;;;;;;5092343;28;20012;-57
2020/12/04 00:13:43;;;;;;;22.23;11.63;;;;;;;;;;5091289;28;20016;-57
2020/12/04 00:16:08;;;;;;;23.37;13.57;;;;;;;;;;5091070;28;20522;-55
2020/12/04 00:18:33;;;;;;;19.27;11.17;;;;;;;;;;5088689;28;20028;-57
2020/12/04 00:20:58;;;;;;;20.43;10.63;;;;;;;;;;5091803;28;20024;-56
2020/12/04 00:23:24;;;;;;;19.53;10.20;;;;;;;;;;5091585;28;20501;-55
2020/12/04 00:25:49;;;;;;;16.47;10.63;;;;;;;;;;5091907;28;20397;-56
2020/12/04 00:28:14;;;;;;;20.70;11.30;;;;;;;;;;5088747;28;20024;-56
2020/12/04 00:30:40;;;;;;;18.47;12.30;;;;;;;;;;5091819;28;20016;-54
2020/12/04 00:33:05;;;;;;;20.80;11.50;;;;;;;;;;5091325;28;20046;-56
2020/12/04 00:35:30;;;;;;;17.03;9.33;;;;;;;;;;5091943;28;20030;-56
2020/12/04 00:37:55;;;;;;;19.20;10.43;;;;;;;;;;5090382;28;20038;-55
2020/12/04 00:40:21;;;;;;;20.07;12.23;;;;;;;;;;5089929;28;20439;-58
2020/12/04 00:42:46;;;;;;;16.00;9.73;;;;;;;;;;5091807;28;20558;-54
2020/12/04 00:45:12;;;;;;;19.97;10.70;;;;;;;;;;5090911;28;20073;-56
2020/12/04 00:47:37;;;;;;;20.80;11.27;;;;;;;;;;5091243;28;20020;-56
2020/12/04 00:50:03;;;;;;;16.80;8.90;;;;;;;;;;5087371;28;20112;-57
2020/12/04 00:52:29;;;;;;;16.77;9.13;;;;;;;;;;5091221;28;20107;-56
2020/12/04 00:54:54;;;;;;;16.20;11.00;;;;;;;;;;5092368;28;20433;-57
2020/12/04 00:57:19;;;;;;;16.90;8.57;;;;;;;;;;5095169;28;20016;-56
2020/12/04 00:59:44;;;;;;;18.13;10.20;;;;;;;;;;5092805;28;20016;-56
2020/12/04 01:02:09;;;;;;;17.33;10.70;;;;;;;;;;5095092;28;20068;-56
2020/12/04 01:04:35;;;;;;;17.03;10.70;;;;;;;;;;5094986;28;20055;-57
2020/12/04 01:07:04;;;;;;;16.20;9.63;;;;;;;;;;5094721;28;20016;-56
2020/12/04 01:09:29;;;;;;;14.97;8.67;;;;;;;;;;5092053;28;20047;-57
2020/12/04 01:11:54;;;;;;;20.27;9.83;;;;;;;;;;5094954;28;20058;-56
2020/12/04 01:14:19;;;;;;;14.90;9.17;;;;;;;;;;5095082;28;20012;-57
2020/12/04 01:16:46;;;;;;;16.50;9.50;;;;;;;;;;5094875;28;20023;-56
2020/12/04 01:19:11;;;;;;;16.13;9.33;;;;;;;;;;5090532;28;20085;-58
2020/12/04 01:21:36;;;;;;;14.93;9.83;;;;;;;;;;5094602;28;20032;-55
2020/12/04 01:24:01;;;;;;;16.63;9.37;;;;;;;;;;5093405;28;20020;-56
2020/12/04 01:26:26;;;;;;;14.43;8.67;;;;;;;;;;5094182;28;20509;-55
2020/12/04 01:28:51;;;;;;;13.10;7.63;;;;;;;;;;5091642;28;20093;-55
2020/12/04 01:31:17;;;;;;;15.00;9.37;;;;;;;;;;5092304;28;20525;-56
2020/12/04 01:33:42;;;;;;;16.07;9.40;;;;;;;;;;5094868;28;20016;-57
2020/12/04 01:36:07;;;;;;;16.40;10.47;;;;;;;;;;5094093;28;20020;-57
2020/12/04 01:38:32;;;;;;;16.83;10.30;;;;;;;;;;5090841;28;20518;-57
2020/12/04 01:40:59;;;;;;;15.03;9.27;;;;;;;;;;5094295;28;20115;-55
2020/12/04 01:43:24;;;;;;;14.97;9.67;;;;;;;;;;5094381;28;20464;-56
2020/12/04 01:45:49;;;;;;;17.47;9.77;;;;;;;;;;5094372;28;20128;-56
2020/12/04 01:48:15;;;;;;;16.77;9.77;;;;;;;;;;5091210;28;20043;-55
2020/12/04 01:50:40;;;;;;;17.27;10.17;;;;;;;;;;5094112;28;20478;-57
2020/12/04 01:53:05;;;;;;;17.80;10.33;;;;;;;;;;5093655;28;20485;-54
2020/12/04 01:55:30;;;;;;;18.73;10.97;;;;;;;;;;5093108;28;20478;-54
2020/12/04 01:57:55;;;;;;;19.33;12.33;;;;;;;;;;5093243;28;20020;-55
2020/12/04 02:00:21;;;;;;;20.00;13.57;;;;;;;;;;5092041;28;20023;-55
2020/12/04 02:02:47;;;;;;;18.87;11.57;;;;;;;;;;5093966;28;20028;-56
2020/12/04 02:05:12;;;;;;;16.90;10.40;;;;;;;;;;5093907;28;20024;-56
2020/12/04 02:07:37;;;;;;;22.17;12.07;;;;;;;;;;5092788;28;20031;-56
2020/12/04 02:10:07;;;;;;;19.83;10.63;;;;;;;;;;5090857;28;20008;-56
2020/12/04 02:12:32;;;;;;;18.23;11.53;;;;;;;;;;5094794;28;20020;-55
2020/12/04 02:14:58;;;;;;;20.67;13.87;;;;;;;;;;5093839;28;20355;-57
2020/12/04 02:17:31;;;;;;;17.83;9.13;;;;;;;;;;5093634;28;20020;-58
2020/12/04 02:19:56;;;;;;;20.07;12.20;;;;;;;;;;5082442;28;20016;-56
2020/12/04 02:22:21;;;;;;;24.37;14.13;;;;;;;;;;5093420;28;20131;-55
2020/12/04 02:24:47;;;;;;;25.70;14.73;;;;;;;;;;5093178;28;20020;-56
2020/12/04 02:27:15;;;;;;;21.10;12.00;;;;;;;;;;5093359;28;20106;-56
2020/12/04 02:29:40;;;;;;;26.50;15.53;;;;;;;;;;5090364;28;20107;-56
2020/12/04 02:32:23;;;;;;;25.80;14.67;;;;;;;;;;5092748;28;20098;-57
2020/12/04 02:34:49;;;;;;;26.83;13.47;;;;;;;;;;5093046;28;20024;-57
2020/12/04 02:37:14;;;;;;;23.03;13.30;;;;;;;;;;5093387;28;20125;-56
2020/12/04 02:39:39;;;;;;;24.87;13.37;;;;;;;;;;5090149;28;20020;-54
2020/12/04 02:42:05;;;;;;;27.47;16.50;;;;;;;;;;5093272;28;20382;-57
2020/12/04 02:44:30;;;;;;;27.97;14.07;;;;;;;;;;5092837;28;20051;-57
2020/12/04 02:46:55;;;;;;;24.93;13.87;;;;;;;;;;5092837;28;20012;-54
2020/12/04 02:49:20;;;;;;;27.80;16.50;;;;;;;;;;5090116;28;20016;-58
2020/12/04 02:51:47;;;;;;;25.50;14.83;;;;;;;;;;5092582;28;20008;-58
2020/12/04 02:54:12;;;;;;;27.33;15.50;;;;;;;;;;5092585;28;20501;-57
2020/12/04 02:56:37;;;;;;;25.97;14.37;;;;;;;;;;5092444;28;20024;-57
2020/12/04 02:59:03;;;;;;;28.00;17.93;;;;;;;;;;5089777;28;20028;-56
2020/12/04 03:01:28;;;;;;;28.27;14.57;;;;;;;;;;5093035;28;20028;-56
2020/12/04 03:03:53;;;;;;;27.50;16.50;;;;;;;;;;5091555;28;20060;-55
2020/12/04 03:06:18;;;;;;;29.73;15.50;;;;;;;;;;5092793;28;20024;-56
2020/12/04 03:08:43;;;;;;;27.13;16.10;;;;;;;;;;5089247;28;20069;-56
2020/12/04 03:11:09;;;;;;;27.60;14.77;;;;;;;;;;5092579;28;20039;-57
2020/12/04 03:13:34;;;;;;;25.27;13.33;;;;;;;;;;5093052;28;20470;-56
2020/12/04 03:15:59;;;;;;;24.70;13.60;;;;;;;;;;5092393;28;20060;-56
2020/12/04 03:18:24;;;;;;;27.77;15.43;;;;;;;;;;5089507;28;20296;-57
2020/12/04 03:20:50;;;;;;;26.33;14.00;;;;;;;;;;5092735;28;20386;-56
2020/12/04 03:23:15;;;;;;;28.07;16.53;;;;;;;;;;5091992;28;20510;-58
2020/12/04 03:25:40;;;;;;;27.53;15.90;;;;;;;;;;5092591;28;20019;-56
2020/12/04 03:28:06;;;;;;;27.27;16.33;;;;;;;;;;5090274;28;20027;-59
2020/12/04 03:30:31;;;;;;;26.13;15.20;;;;;;;;;;5088351;28;20016;-57
2020/12/04 03:32:56;;;;;;;26.07;14.83;;;;;;;;;;5092335;28;20158;-57
2020/12/04 03:35:21;;;;;;;24.50;13.50;;;;;;;;;;5092651;28;20070;-56
2020/12/04 03:37:46;;;;;;;27.10;13.90;;;;;;;;;;5091904;28;20020;-54
2020/12/04 03:40:12;;;;;;;25.63;13.90;;;;;;;;;;5089205;28;20024;-56
2020/12/04 03:42:37;;;;;;;25.17;15.00;;;;;;;;;;5092206;28;20055;-56
2020/12/04 03:45:03;;;;;;;25.10;12.67;;;;;;;;;;5092035;28;20031;-59
2020/12/04 03:47:28;;;;;;;24.53;13.33;;;;;;;;;;5091985;28;20016;-57
2020/12/04 03:49:53;;;;;;;24.07;12.53;;;;;;;;;;5089309;28;20020;-54
2020/12/04 03:52:20;;;;;;;18.50;11.37;;;;;;;;;;5091853;28;20039;-57
2020/12/04 03:54:45;;;;;;;24.57;13.33;;;;;;;;;;5092175;28;20094;-56
2020/12/04 03:57:11;;;;;;;23.73;12.93;;;;;;;;;;5091412;28;20479;-57
2020/12/04 03:59:36;;;;;;;24.03;14.73;;;;;;;;;;5089376;28;20030;-56
2020/12/04 04:02:01;;;;;;;22.73;13.57;;;;;;;;;;5091883;28;20024;-56
2020/12/04 04:04:26;;;;;;;19.87;10.00;;;;;;;;;;5091933;28;20020;-55
2020/12/04 04:06:51;;;;;;;24.17;12.87;;;;;;;;;;5092006;28;20020;-57
2020/12/04 04:09:17;;;;;;;22.67;11.27;;;;;;;;;;5088672;28;20016;-54
2020/12/04 04:11:42;;;;;;;21.63;13.20;;;;;;;;;;5091996;28;20358;-58
2020/12/04 04:14:07;;;;;;;19.87;10.10;;;;;;;;;;5092129;28;20020;-56
2020/12/04 04:16:32;;;;;;;23.00;11.70;;;;;;;;;;5090717;28;20028;-57
2020/12/04 04:18:57;;;;;;;20.70;10.97;;;;;;;;;;5087585;28;20123;-57
2020/12/04 04:21:23;;;;;;;20.87;11.87;;;;;;;;;;5091758;28;20016;-56
2020/12/04 04:23:48;;;;;;;24.90;12.93;;;;;;;;;;5091631;28;20047;-57
2020/12/04 04:26:13;;;;;;;24.30;13.63;;;;;;;;;;5090045;28;20428;-57
2020/12/04 04:28:40;;;;;;;24.37;14.53;;;;;;;;;;5088663;28;20017;-56
2020/12/04 04:31:06;;;;;;;23.63;15.37;;;;;;;;;;5091494;28;20016;-56
2020/12/04 04:33:31;;;;;;;21.70;12.50;;;;;;;;;;5095590;28;20027;-58
2020/12/04 04:35:56;;;;;;;21.47;12.00;;;;;;;;;;5095748;28;20020;-58
2020/12/04 04:38:21;;;;;;;19.37;11.97;;;;;;;;;;5092135;28;20024;-56
2020/12/04 04:40:47;;;;;;;24.43;11.73;;;;;;;;;;5089702;28;20016;-55
2020/12/04 04:43:12;;;;;;;21.17;11.50;;;;;;;;;;5095655;28;20103;-58
2020/12/04 04:45:41;;;;;;;22.33;11.60;;;;;;;;;;5095516;28;20253;-57
2020/12/04 04:48:10;;;;;;;20.47;11.30;;;;;;;;;;5092922;28;20019;-57
2020/12/04 04:50:35;;;;;;;19.30;9.73;;;;;;;;;;5095159;28;20099;-57
2020/12/04 04:53:01;;;;;;;18.27;9.77;;;;;;;;;;5095094;28;20054;-56
2020/12/04 04:55:26;;;;;;;18.47;10.80;;;;;;;;;;5095592;28;20031;-57
2020/12/04 04:57:52;;;;;;;20.33;10.30;;;;;;;;;;5094307;28;20051;-54
2020/12/04 05:00:21;;;;;;;18.73;9.87;;;;;;;;;;5093001;28;20024;-57
2020/12/04 05:02:46;;;;;;;18.57;9.73;;;;;;;;;;5095363;28;20047;-57
2020/12/04 05:05:11;;;;;;;18.10;9.60;;;;;;;;;;5094585;28;20595;-57
2020/12/04 05:07:36;;;;;;;19.00;10.03;;;;;;;;;;5094470;28;20012;-54
2020/12/04 05:10:15;;;;;;;18.67;10.07;;;;;;;;;;5083947;28;20020;-57
2020/12/04 05:12:41;;;;;;;18.20;10.00;;;;;;;;;;5094966;28;20020;-57
2020/12/04 05:15:19;;;;;;;18.23;10.23;;;;;;;;;;5093660;28;20491;-56
2020/12/04 05:18:01;;;;;;;15.30;7.80;;;;;;;;;;5095004;28;20039;-58
2020/12/04 05:20:26;;;;;;;17.47;9.73;;;;;;;;;;5093278;28;20481;-58
2020/12/04 05:22:55;;;;;;;16.37;9.33;;;;;;;;;;5093477;28;20074;-58
2020/12/04 05:25:20;;;;;;;20.00;11.57;;;;;;;;;;5094172;28;20016;-58
2020/12/04 05:27:46;;;;;;;17.50;9.80;;;;;;;;;;5095193;28;20019;-55
2020/12/04 05:30:21;;;;;;;21.43;11.20;;;;;;;;;;5089627;28;20020;-57
2020/12/04 05:32:56;;;;;;;20.30;11.57;;;;;;;;;;5091677;28;20035;-57
2020/12/04 05:35:22;;;;;;;16.25;9.95;;;;;;;;;;5094880;28;20020;-57
2020/12/04 05:37:47;;;;;;;19.93;10.00;;;;;;;;;;5094141;28;20146;-58
2020/12/04 05:40:22;;;;;;;18.07;9.87;;;;;;;;;;5087347;28;20099;-58
2020/12/04 05:42:47;;;;;;;17.97;9.63;;;;;;;;;;5093629;28;20107;-56
2020/12/04 05:45:12;;;;;;;16.50;9.03;;;;;;;;;;5093755;28;20170;-57
2020/12/04 05:47:41;;;;;;;17.33;8.87;;;;;;;;;;5094147;28;20107;-57
2020/12/04 05:50:08;;;;;;;13.63;7.80;;;;;;;;;;5091652;28;20016;-55
2020/12/04 05:52:34;;;;;;;18.03;9.27;;;;;;;;;;5094045;28;20022;-56
2020/12/04 05:54:59;;;;;;;17.47;9.57;;;;;;;;;;5092640;28;20020;-55
2020/12/04 05:57:26;;;;;;;18.57;9.17;;;;;;;;;;5093746;28;20085;-57
2020/12/04 05:59:52;;;;;;;17.63;10.17;;;;;;;;;;5089338;28;20069;-57
2020/12/04 06:02:17;;;;;;;17.60;10.20;;;;;;;;;;5094274;28;20028;-58
2020/12/04 06:04:43;;;;;;;18.10;10.17;;;;;;;;;;5093886;28;20024;-56
2020/12/04 06:07:11;;;;;;;15.33;8.27;;;;;;;;;;5093079;28;20018;-58
2020/12/04 06:09:36;;;;;;;18.47;10.10;;;;;;;;;;5090945;28;20012;-57
2020/12/04 06:12:01;;;;;;;16.83;9.47;;;;;;;;;;5093773;28;20425;-58
2020/12/04 06:14:26;;;;;;;18.73;10.00;;;;;;;;;;5093598;28;20028;-58
2020/12/04 06:17:00;;;;;;;16.10;9.07;;;;;;;;;;5092824;28;20111;-58
2020/12/04 06:19:29;;;;;;;16.77;9.63;;;;;;;;;;5090247;28;20154;-55
2020/12/04 06:22:04;;;;;;;18.37;9.57;;;;;;;;;;5093071;28;20491;-56
2020/12/04 06:24:30;;;;;;;;;;;;;;;;;;5093247;28;20103;-57
2020/12/04 06:26:55;;;;;;;15.50;8.43;;;;;;;;;;5091920;28;20003;-55
2020/12/04 06:29:20;;;;;;;13.43;7.00;;;;;;;;;;5084318;28;20073;-53
2020/12/04 06:31:45;;;;;;;16.23;9.47;;;;;;;;;;5092248;28;20374;-55
2020/12/04 06:34:18;;;;;;;16.87;9.47;;;;;;;;;;5091867;28;20540;-54
2020/12/04 06:36:43;;;;;;;17.60;9.87;;;;;;;;;;5091638;28;20099;-58
2020/12/04 06:39:09;;;;;;;16.00;8.43;;;;;;;;;;5082786;28;20404;-56
2020/12/04 06:41:35;;;;;;;16.80;8.13;;;;;;;;;;5090995;28;20024;-54
2020/12/04 06:44:02;;;;;;;19.10;8.70;;;;;;;;;;5093225;28;20024;-55
2020/12/04 06:46:32;;;;;;;14.90;7.73;;;;;;;;;;5086782;28;20066;-56
2020/12/04 06:49:12;;;;;;;15.73;8.30;;;;;;;;;;5088912;28;20014;-53
2020/12/04 06:51:38;;;;;;;20.03;11.37;;;;;;;;;;5091234;28;20012;-52
2020/12/04 06:54:05;;;;;;;16.00;10.10;;;;;;;;;;5091699;28;20020;-55
2020/12/04 06:56:30;;;;;;;18.07;11.07;;;;;;;;;;5092025;28;20066;-57
2020/12/04 06:58:56;;;;;;;22.90;10.10;;;;;;;;;;5087790;28;20020;-56
2020/12/04 07:01:21;;;;;;;15.37;8.97;;;;;;;;;;5092056;28;20035;-56
2020/12/04 07:03:47;;;;;;;15.97;10.23;;;;;;;;;;5092124;28;20020;-56
2020/12/04 07:06:20;;;;;;;18.20;9.33;;;;;;;;;;5092446;28;20442;-54
2020/12/04 07:09:04;;;;;;;15.93;8.80;;;;;;;;;;5089288;28;20486;-51
2020/12/04 07:11:30;;;;;;;15.00;8.27;;;;;;;;;;5092914;28;20111;-55
2020/12/04 07:13:55;;;;;;;15.53;8.47;;;;;;;;;;5092615;28;20055;-54
2020/12/04 07:16:21;;;;;;;16.83;9.37;;;;;;;;;;5092289;28;20015;-57
2020/12/04 07:18:49;;;;;;;14.80;8.90;;;;;;;;;;5086886;28;20020;-53
2020/12/04 07:21:14;;;;;;;15.43;8.27;;;;;;;;;;5092750;28;20035;-54
2020/12/04 07:23:39;;;;;;;15.33;8.90;;;;;;;;;;5092329;28;20052;-56
2020/12/04 07:26:11;;;;;;;12.90;8.30;;;;;;;;;;5091919;28;20043;-54
2020/12/04 07:28:36;;;;;;;13.70;7.27;;;;;;;;;;5089215;28;20035;-54
2020/12/04 07:31:01;;;;;;;15.27;8.77;;;;;;;;;;5088106;28;20020;-57
2020/12/04 07:33:27;;;;;;;17.13;9.00;;;;;;;;;;5092380;28;20027;-54
2020/12/04 07:36:02;;;;;;;14.63;9.13;;;;;;;;;;5091865;28;20060;-56
2020/12/04 07:38:27;;;;;;;;;;;;;;;;;;5086381;28;20020;-56
2020/12/04 07:40:52;;;;;;;16.70;8.45;;;;;;;;;;5091854;28;19953;-56
2020/12/04 07:43:18;;;;;;;14.13;7.90;;;;;;;;;;5092504;28;20024;-55
2020/12/04 07:45:43;;;;;;;14.67;7.73;;;;;;;;;;5091743;28;20020;-52
2020/12/04 07:48:08;;;;;;;16.90;9.97;;;;;;;;;;5089507;28;20012;-54
2020/12/04 07:50:34;;;;;;;15.97;9.07;;;;;;;;;;5091511;28;21510;-54
2020/12/04 07:52:59;;;;;;;16.13;9.17;;;;;;;;;;5090618;28;20018;-55
2020/12/04 07:55:25;;;;;;;14.43;7.40;;;;;;;;;;5088374;28;20477;-54
2020/12/04 07:58:03;;;;;;;15.13;7.97;;;;;;;;;;5091588;28;20032;-55
2020/12/04 08:00:32;;;;;;;15.90;7.50;;;;;;;;;;5090340;28;20107;-57
2020/12/04 08:03:01;;;;;;;15.70;8.40;;;;;;;;;;5090027;28;20020;-55
2020/12/04 08:05:26;;;;;;;13.87;8.73;;;;;;;;;;5094125;28;20107;-56
2020/12/04 08:07:52;;;;;;;13.47;7.10;;;;;;;;;;5095166;28;20100;-56
2020/12/04 08:10:18;;;;;;;14.60;8.57;;;;;;;;;;5087452;28;20017;-57
2020/12/04 08:12:43;;;;;;;15.87;10.17;;;;;;;;;;5088217;28;20027;-57
2020/12/04 08:15:11;;;;;;;16.77;10.37;;;;;;;;;;5091957;28;20039;-56
2020/12/04 08:17:36;;;;;;;17.67;11.50;;;;;;;;;;5094888;28;20024;-55
2020/12/04 08:20:01;;;;;;;16.67;10.03;;;;;;;;;;5090063;28;20023;-56
2020/12/04 08:22:28;;;;;;;17.80;10.83;;;;;;;;;;5094889;28;20483;-55
2020/12/04 08:27:28;;;;;;;18.65;11.38;;;;;;;;;;5088950;28;20013;-55
2020/12/04 08:30:02;;;;;;;17.37;9.80;;;;;;;;;;5091588;28;20405;-57
2020/12/04 08:32:27;;;;;;;16.73;8.87;;;;;;;;;;5092514;28;20103;-53
2020/12/04 08:35:05;;;;;;;14.67;8.77;;;;;;;;;;5091179;28;20165;-54
2020/12/04 08:37:30;;;;;;;15.07;10.20;;;;;;;;;;5094702;28;20356;-55
2020/12/04 08:39:55;;;;;;;16.03;9.27;;;;;;;;;;5087615;28;20016;-57
2020/12/04 08:42:29;;;;;;;15.07;9.17;;;;;;;;;;5092411;28;20012;-56
2020/12/04 08:44:55;;;;;;;17.37;10.67;;;;;;;;;;5094670;28;20093;-56
2020/12/04 08:47:27;;;;;;;14.70;9.37;;;;;;;;;;5093087;28;20023;-57
2020/12/04 08:49:54;;;;;;;15.40;10.10;;;;;;;;;;5083774;28;20096;-56
2020/12/04 08:52:39;;;;;;;14.63;10.03;;;;;;;;;;5094291;28;20023;-56
2020/12/04 08:55:18;;;;;;;13.77;8.45;;;;;;;;;;5091310;28;20069;-56
2020/12/04 08:57:43;;;;;;;14.83;9.13;;;;;;;;;;5094228;28;20494;-56
2020/12/04 09:00:09;;;;;;;14.27;8.93;;;;;;;;;;5092011;28;20027;-55
2020/12/04 09:02:35;;;;;;;15.00;9.57;;;;;;;;;;5088453;28;20394;-57
2020/12/04 09:05:01;;;;;;;12.60;8.53;;;;;;;;;;5094549;28;20027;-56
2020/12/04 09:07:26;;;;;;;15.17;10.00;;;;;;;;;;5093895;28;20050;-56
2020/12/04 09:09:51;;;;;;;13.53;6.53;;;;;;;;;;5090335;28;20459;-56
2020/12/04 09:12:16;;;;;;;12.83;7.93;;;;;;;;;;5092877;28;20016;-54
2020/12/04 09:14:42;;;;;;;15.70;12.17;;;;;;;;;;5093770;28;20024;-53
2020/12/04 09:17:07;;;;;;;15.23;9.07;;;;;;;;;;5086447;28;20066;-56
2020/12/04 09:19:32;;;;;;;15.03;8.50;;;;;;;;;;5090901;28;20062;-56
2020/12/04 09:21:57;;;;;;;16.20;10.70;;;;;;;;;;5093679;28;20032;-55
2020/12/04 09:24:23;;;;;;;13.83;8.47;;;;;;;;;;5090723;28;20019;-56
2020/12/04 09:26:48;;;;;;;12.27;8.17;;;;;;;;;;5080059;28;20074;-58
2020/12/04 09:29:13;;;;;;;13.53;8.37;;;;;;;;;;5086037;28;20023;-56
2020/12/04 09:31:38;;;;;;;15.07;8.63;;;;;;;;;;5088938;28;20413;-54
2020/12/04 09:34:03;;;;;;;15.93;9.07;;;;;;;;;;5086652;28;20462;-56
2020/12/04 09:36:29;;;;;;;13.93;8.57;;;;;;;;;;5093615;28;20535;-54
2020/12/04 09:38:54;;;;;;;13.83;7.93;;;;;;;;;;5081013;28;20020;-55
2020/12/04 09:41:19;;;;;;;13.13;7.73;;;;;;;;;;5093714;28;20024;-56
2020/12/04 09:43:44;;;;;;;12.10;8.27;;;;;;;;;;5092844;28;20031;-57
2020/12/04 09:46:09;;;;;;;11.83;7.37;;;;;;;;;;5094473;28;20020;-57
2020/12/04 09:48:35;;;;;;;12.67;7.50;;;;;;;;;;5090956;28;20012;-55
2020/12/04 09:51:00;;;;;;;12.70;6.97;;;;;;;;;;5092585;28;20008;-56
2020/12/04 09:53:25;;;;;;;13.30;8.03;;;;;;;;;;5093580;28;20051;-56
2020/12/04 09:55:50;;;;;;;10.90;7.13;;;;;;;;;;5093647;28;20081;-56
2020/12/04 09:58:16;;;;;;;13.40;8.93;;;;;;;;;;5086866;28;20028;-58
2020/12/04 10:00:41;;;;;;;12.57;7.83;;;;;;;;;;5082944;28;20021;-58
2020/12/04 10:03:06;;;;;;;11.70;8.33;;;;;;;;;;5093032;28;20024;-56
2020/12/04 10:05:31;;;;;;;11.57;7.63;;;;;;;;;;5091296;28;20390;-55
2020/12/04 10:07:56;;;;;;;11.67;8.37;;;;;;;;;;5091658;28;20454;-57
2020/12/04 10:10:23;;;;;;;10.70;9.03;;;;;;;;;;5090489;28;20481;-56
2020/12/04 10:12:49;;;;;;;12.60;7.50;;;;;;;;;;5085743;28;20082;-58
2020/12/04 10:15:14;;;;;;;10.20;7.65;;;;;;;;;;5086792;28;20020;-57
2020/12/04 10:17:39;;;;;;;8.70;6.65;;;;;;;;;;5092393;28;20032;-56
2020/12/04 10:20:04;;;;;;;10.75;7.95;;;;;;;;;;5089824;28;20107;-58
2020/12/04 10:22:29;;;;;;;11.60;7.97;;;;;;;;;;5093115;28;20436;-56
2020/12/04 10:24:55;;;;;;;11.90;7.95;;;;;;;;;;5091362;28;20082;-58
2020/12/04 10:27:20;;;;;;;12.43;9.18;;;;;;;;;;5091426;28;20504;-56
2020/12/04 10:29:45;;;;;;;11.15;8.32;;;;;;;;;;5090386;28;20562;-58
2020/12/04 10:32:10;;;;;;;12.80;8.50;;;;;;;;;;5092839;28;20535;-57
2020/12/04 10:34:35;;;;;;;13.30;10.07;;;;;;;;;;5093455;28;20016;-56
2020/12/04 10:37:01;;;;;;;12.20;8.83;;;;;;;;;;5085149;28;20123;-57
2020/12/04 10:39:26;;;;;;;13.20;9.60;;;;;;;;;;5089360;28;20055;-56
2020/12/04 10:41:52;;;;;;;14.03;9.53;;;;;;;;;;5087950;28;20024;-56
2020/12/04 10:44:17;;;;;;;13.23;9.30;;;;;;;;;;5093268;28;20048;-58
2020/12/04 10:46:42;;;;;;;14.40;11.20;;;;;;;;;;5091594;28;20382;-55
2020/12/04 10:49:08;;;;;;;13.17;10.40;;;;;;;;;;5089977;28;20336;-58
2020/12/04 10:51:33;;;;;;;14.60;10.87;;;;;;;;;;5081932;28;20024;-57
2020/12/04 10:53:58;;;;;;;17.10;12.90;;;;;;;;;;5088261;28;20027;-55
2020/12/04 10:56:24;;;;;;;14.73;9.10;;;;;;;;;;5090330;28;20472;-54
2020/12/04 10:58:49;;;;;;;14.67;10.77;;;;;;;;;;5087879;28;20027;-56
2020/12/04 11:01:22;;;;;;;14.27;10.30;;;;;;;;;;5088185;28;20107;-55
2020/12/04 11:06:18;;;;;;;14.00;9.03;;;;;;;;;;5092519;28;20123;-55
2020/12/04 11:08:46;;;;;;;13.23;8.87;;;;;;;;;;5089217;28;20051;-58
2020/12/04 11:11:11;;;;;;;12.50;9.00;;;;;;;;;;5088599;28;20051;-56
2020/12/04 11:13:37;;;;;;;15.37;11.13;;;;;;;;;;5086728;28;20040;-56
2020/12/04 11:16:02;;;;;;;13.97;10.33;;;;;;;;;;5091726;28;21426;-56
2020/12/04 11:18:27;;;;;;;13.37;9.67;;;;;;;;;;5088185;28;20307;-55
2020/12/04 11:20:52;;;;;;;15.43;8.83;;;;;;;;;;5092475;28;20032;-58
2020/12/04 11:23:18;;;;;;;12.97;9.50;;;;;;;;;;5091035;28;20039;-57
2020/12/04 11:25:43;;;;;;;13.47;9.47;;;;;;;;;;5091432;28;20028;-57
2020/12/04 11:28:08;;;;;;;12.37;9.70;;;;;;;;;;5088880;28;20081;-56
2020/12/04 11:30:33;;;;;;;13.93;10.43;;;;;;;;;;5086090;28;20410;-58
2020/12/04 11:32:58;;;;;;;15.20;9.87;;;;;;;;;;5087491;28;20020;-55
2020/12/04 11:35:24;;;;;;;14.20;11.37;;;;;;;;;;5090156;28;20103;-57
2020/12/04 11:37:49;;;;;;;12.93;10.37;;;;;;;;;;5089584;28;20024;-58
2020/12/04 11:40:16;;;;;;;12.90;9.97;;;;;;;;;;5087856;28;20103;-58
2020/12/04 11:42:42;;;;;;;11.73;8.47;;;;;;;;;;5091069;28;20042;-59
2020/12/04 11:45:08;;;;;;;12.60;9.27;;;;;;;;;;5091064;28;20024;-57
2020/12/04 11:47:37;;;;;;;14.57;10.63;;;;;;;;;;5087281;28;20042;-59
2020/12/04 11:50:03;;;;;;;12.43;8.40;;;;;;;;;;5087821;28;20111;-55
2020/12/04 11:52:28;;;;;;;13.77;9.50;;;;;;;;;;5092122;28;20074;-58
2020/12/04 11:54:53;;;;;;;13.27;9.47;;;;;;;;;;5086716;28;20028;-59
2020/12/04 11:57:19;;;;;;;12.10;9.30;;;;;;;;;;5084782;28;20016;-58
2020/12/04 11:59:44;;;;;;;13.07;10.33;;;;;;;;;;5080474;28;20411;-56
2020/12/04 12:02:09;;;;;;;11.93;8.87;;;;;;;;;;5084284;28;20020;-58
2020/12/04 12:04:34;;;;;;;12.60;10.50;;;;;;;;;;5085056;28;20027;-56
2020/12/04 12:06:59;;;;;;;11.47;9.17;;;;;;;;;;5085143;28;20103;-55
2020/12/04 12:09:25;;;;;;;12.67;10.33;;;;;;;;;;5085185;28;20373;-58
2020/12/04 12:11:50;;;;;;;12.57;9.37;;;;;;;;;;5091476;28;20083;-55
2020/12/04 12:14:15;;;;;;;12.30;8.77;;;;;;;;;;5091152;28;20390;-57
2020/12/04 12:16:44;;;;;;;13.63;10.03;;;;;;;;;;5087936;28;20485;-58
2020/12/04 12:19:10;;;;;;;11.93;9.23;;;;;;;;;;5087833;28;20044;-56
2020/12/04 12:21:36;;;;;;;12.77;9.60;;;;;;;;;;5091593;28;20048;-58
2020/12/04 12:24:01;;;;;;;12.27;8.93;;;;;;;;;;5091022;28;20084;-57
2020/12/04 12:26:26;;;;;;;11.40;9.27;;;;;;;;;;5090752;28;20020;-57
2020/12/04 12:28:51;;;;;;;12.83;9.40;;;;;;;;;;5087648;28;20230;-58
2020/12/04 12:31:17;;;;;;;12.00;8.90;;;;;;;;;;5089702;28;20020;-57
2020/12/04 12:33:42;;;;;;;11.90;9.87;;;;;;;;;;5090988;28;20020;-58
2020/12/04 12:36:07;;;;;;;12.27;9.40;;;;;;;;;;5082093;28;20020;-56
2020/12/04 12:38:33;;;;;;;12.47;9.63;;;;;;;;;;5088341;28;20430;-57
2020/12/04 12:40:58;;;;;;;12.43;8.63;;;;;;;;;;5090624;28;20370;-57
2020/12/04 12:43:23;;;;;;;13.30;9.73;;;;;;;;;;5090964;28;20031;-57
2020/12/04 12:45:48;;;;;;;11.57;9.17;;;;;;;;;;5091219;28;20027;-58
2020/12/04 12:48:14;;;;;;;12.13;9.83;;;;;;;;;;5078808;28;20231;-57
2020/12/04 12:50:39;;;;;;;11.07;9.13;;;;;;;;;;5084983;28;20430;-58
2020/12/04 12:53:04;;;;;;;12.47;9.73;;;;;;;;;;5084503;28;20410;-54
2020/12/04 12:55:29;;;;;;;12.93;9.23;;;;;;;;;;5088347;28;20118;-57
2020/12/04 12:57:55;;;;;;;11.33;8.67;;;;;;;;;;5087373;28;20064;-56
2020/12/04 13:00:20;;;;;;;12.13;10.73;;;;;;;;;;5085597;28;20016;-54
2020/12/04 13:02:45;;;;;;;10.30;9.00;;;;;;;;;;5088990;28;20024;-58
2020/12/04 13:07:55;;;;;;;13.27;9.50;;;;;;;;;;5082340;28;20027;-55
2020/12/04 13:10:20;;;;;;;11.93;8.90;;;;;;;;;;5086120;28;20012;-58
2020/12/04 13:12:46;;;;;;;13.03;8.50;;;;;;;;;;5086962;28;20441;-57
2020/12/04 13:15:12;;;;;;;11.63;9.17;;;;;;;;;;5087833;28;20389;-57
2020/12/04 13:17:37;;;;;;;12.70;8.93;;;;;;;;;;5089241;28;20112;-58
2020/12/04 13:20:03;;;;;;;12.87;9.13;;;;;;;;;;5080467;28;20016;-58
2020/12/04 13:22:28;;;;;;;12.60;9.77;;;;;;;;;;5086711;28;20402;-57
2020/12/04 13:24:54;;;;;;;13.07;9.67;;;;;;;;;;5084196;28;20454;-57
2020/12/04 13:27:19;;;;;;;13.93;11.10;;;;;;;;;;5084924;28;20478;-58
2020/12/04 13:29:44;;;;;;;12.83;10.57;;;;;;;;;;5090178;28;20016;-57
2020/12/04 13:32:09;;;;;;;12.77;9.57;;;;;;;;;;5094076;28;20031;-57
2020/12/04 13:34:38;;;;;;;14.43;10.30;;;;;;;;;;5093689;28;20421;-58
2020/12/04 13:37:04;;;;;;;11.63;10.20;;;;;;;;;;5091570;28;20047;-56
2020/12/04 13:39:29;;;;;;;14.33;11.83;;;;;;;;;;5086438;28;20106;-55
2020/12/04 13:41:54;;;;;;;14.20;10.83;;;;;;;;;;5092047;28;20028;-54
2020/12/04 13:44:19;;;;;;;13.93;10.80;;;;;;;;;;5090134;28;20031;-56
2020/12/04 13:46:45;;;;;;;14.57;11.13;;;;;;;;;;5088292;28;20021;-57
2020/12/04 13:49:10;;;;;;;14.60;11.03;;;;;;;;;;5085122;28;20016;-57
2020/12/04 13:51:37;;;;;;;14.80;10.57;;;;;;;;;;5094296;28;20012;-56
2020/12/04 13:54:02;;;;;;;15.17;10.47;;;;;;;;;;5093522;28;20012;-56
2020/12/04 13:56:28;;;;;;;14.47;11.33;;;;;;;;;;5093955;28;20020;-57
2020/12/04 13:58:53;;;;;;;16.20;10.60;;;;;;;;;;5088458;28;20020;-56
2020/12/04 14:01:20;;;;;;;13.83;10.57;;;;;;;;;;5093552;28;20538;-57
2020/12/04 14:03:50;;;;;;;14.87;12.13;;;;;;;;;;5092833;28;20086;-57
2020/12/04 14:06:16;;;;;;;15.63;11.37;;;;;;;;;;5093670;28;20466;-55
2020/12/04 14:08:41;;;;;;;15.67;11.43;;;;;;;;;;5090503;28;20501;-54
2020/12/04 14:11:06;;;;;;;16.37;12.10;;;;;;;;;;5094323;28;20008;-56
2020/12/04 14:13:32;;;;;;;16.40;12.70;;;;;;;;;;5093769;28;20019;-57
2020/12/04 14:15:57;;;;;;;15.83;12.10;;;;;;;;;;5086141;28;20016;-54
2020/12/04 14:18:22;;;;;;;18.50;13.37;;;;;;;;;;5087244;28;20066;-56
2020/12/04 14:20:48;;;;;;;16.13;11.60;;;;;;;;;;5092096;28;20032;-56
2020/12/04 14:23:13;;;;;;;16.73;12.83;;;;;;;;;;5086059;28;20044;-56
2020/12/04 14:25:39;;;;;;;16.70;13.30;;;;;;;;;;5085950;28;20024;-55